Time;durP1;ratioP1;P1;durP2;ratioP2;P2;SDS_P1;SDS_P2;PMS_P1;PMS_P2;Temp;Humidity;BMP_temperature;BMP_pressure;BME280_temperature;BME280_humidity;BME280_pressure;Samples;Min_cycle;Max_cycle;Signal;HPM_P1;HPM_P2
2023/10/02 00:00:39;;;;;;;3.50;2.50;;;23.90;61.90;;;;;;217038;1292;22546;-64
2023/10/02 00:06:02;;;;;;;4.00;3.00;;;23.80;61.70;;;;;;217086;1298;22945;-62
2023/10/02 00:11:35;;;;;;;6.60;2.70;;;23.80;61.60;;;;;;217316;1297;25301;-65
2023/10/02 00:16:37;;;;;;;4.00;2.40;;;23.80;61.80;;;;;;217119;1289;22677;-62
2023/10/02 00:21:42;;;;;;;3.70;2.80;;;23.80;61.40;;;;;;217327;1290;22585;-65
2023/10/02 00:26:44;;;;;;;3.80;3.00;;;23.80;61.40;;;;;;217509;1298;22549;-63
2023/10/02 00:31:50;;;;;;;4.30;2.80;;;23.80;61.40;;;;;;217145;1298;24302;-63
2023/10/02 00:36:53;;;;;;;4.20;2.80;;;23.80;61.40;;;;;;217229;1297;22683;-62
2023/10/02 00:47:42;;;;;;;4.00;2.60;;;23.70;61.10;;;;;;217039;1294;22790;-62
2023/10/02 00:52:55;;;;;;;4.60;3.10;;;23.80;61.30;;;;;;217417;1292;22935;-63
2023/10/02 00:58:02;;;;;;;5.50;3.00;;;23.80;61.30;;;;;;225028;1296;22325;-64
2023/10/02 01:03:14;;;;;;;4.60;2.40;;;23.90;61.00;;;;;;217093;1291;22772;-62
2023/10/02 01:08:25;;;;;;;4.60;3.00;;;23.90;60.70;;;;;;217952;1291;24094;-63
2023/10/02 01:13:29;;;;;;;4.00;2.90;;;23.90;60.70;;;;;;217439;1295;22559;-62
2023/10/02 01:18:35;;;;;;;5.10;2.80;;;23.80;61.30;;;;;;217287;1292;22680;-63
2023/10/02 01:29:11;;;;;;;2.70;2.20;;;23.70;61.50;;;;;;217319;1298;22602;-64
2023/10/02 01:34:39;;;;;;;4.10;3.20;;;23.70;61.10;;;;;;217349;1298;24280;-64
2023/10/02 01:39:38;;;;;;;4.10;2.50;;;23.70;61.20;;;;;;217257;1292;23608;-62
2023/10/02 01:44:54;;;;;;;6.00;3.20;;;23.70;61.00;;;;;;216914;1298;25357;-64
2023/10/02 01:50:00;;;;;;;3.20;2.20;;;23.70;60.90;;;;;;217454;1298;25339;-63
2023/10/02 01:55:04;;;;;;;2.70;2.20;;;23.70;60.90;;;;;;217113;1298;22582;-63
2023/10/02 02:00:13;;;;;;;4.20;2.50;;;23.70;60.80;;;;;;217252;1298;22563;-63
2023/10/02 02:05:16;;;;;;;2.90;2.10;;;23.70;61.20;;;;;;217180;1295;24386;-64
2023/10/02 02:10:22;;;;;;;5.40;3.40;;;23.70;61.20;;;;;;217224;1292;22536;-64
2023/10/02 02:15:25;;;;;;;8.30;3.20;;;23.70;61.10;;;;;;217286;1295;22761;-63
2023/10/02 02:20:44;;;;;;;5.00;2.50;;;23.70;61.30;;;;;;217056;1296;22564;-64
2023/10/02 02:25:47;;;;;;;3.20;2.20;;;23.70;61.30;;;;;;217423;1285;22561;-63
2023/10/02 02:30:50;;;;;;;4.50;2.70;;;23.60;61.60;;;;;;217399;1292;22579;-66
2023/10/02 02:36:05;;;;;;;3.10;2.30;;;23.70;61.30;;;;;;217036;1292;22559;-64
2023/10/02 02:41:09;;;;;;;4.80;3.40;;;23.70;61.60;;;;;;217125;1292;24358;-62
2023/10/02 02:46:17;;;;;;;2.90;2.30;;;23.60;61.20;;;;;;217109;1295;22844;-63
2023/10/02 02:51:23;;;;;;;4.50;2.80;;;23.70;61.10;;;;;;217070;1299;25285;-63
2023/10/02 02:56:28;;;;;;;6.20;3.80;;;23.60;61.20;;;;;;217145;1288;22682;-63
2023/10/02 03:01:30;;;;;;;2.60;2.40;;;23.60;60.90;;;;;;221643;1295;22663;-64
2023/10/02 03:06:35;;;;;;;7.00;4.10;;;23.70;60.90;;;;;;216522;1287;326422;-62
2023/10/02 03:11:40;;;;;;;3.80;2.30;;;23.70;60.90;;;;;;217370;1298;24407;-63
2023/10/02 03:16:46;;;;;;;6.40;3.70;;;23.70;61.00;;;;;;217119;1298;22579;-63
2023/10/02 03:21:54;;;;;;;5.50;2.90;;;23.60;61.00;;;;;;217171;1292;22702;-64
2023/10/02 03:27:00;;;;;;;3.10;2.40;;;23.60;61.00;;;;;;217254;1293;22936;-63
2023/10/02 03:32:05;;;;;;;3.40;2.40;;;23.60;61.50;;;;;;217234;1292;22820;-62
2023/10/02 03:42:14;;;;;;;3.60;2.70;;;23.60;61.20;;;;;;217106;1298;23826;-65
2023/10/02 03:47:18;;;;;;;3.00;2.60;;;23.60;61.20;;;;;;217455;1298;22645;-63
2023/10/02 03:52:21;;;;;;;3.90;2.30;;;23.60;61.10;;;;;;217186;1298;22599;-65
2023/10/02 04:03:05;;;;;;;5.80;2.30;;;23.60;61.30;;;;;;216996;1298;22555;-65
2023/10/02 04:08:30;;;;;;;6.10;3.30;;;23.50;61.40;;;;;;217224;1292;22572;-65
2023/10/02 04:13:39;;;;;;;6.60;3.40;;;23.60;61.20;;;;;;217221;1292;25469;-63
2023/10/02 04:18:45;;;;;;;2.60;2.00;;;23.60;61.30;;;;;;217182;1295;22735;-64
2023/10/02 04:23:52;;;;;;;5.10;2.10;;;23.60;61.30;;;;;;217394;1298;22616;-63
2023/10/02 04:34:29;;;;;;;3.00;2.30;;;23.60;61.70;;;;;;216993;1298;22555;-62
2023/10/02 04:44:46;;;;;;;6.10;2.90;;;23.60;61.40;;;;;;217066;1290;22591;-64
2023/10/02 04:55:08;;;;;;;3.90;2.90;;;23.60;61.50;;;;;;217041;1276;24257;-62
2023/10/02 05:00:26;;;;;;;3.70;2.40;;;23.60;61.50;;;;;;221052;1291;25443;-63
2023/10/02 05:05:34;;;;;;;2.50;2.00;;;23.60;61.00;;;;;;219812;1298;24250;-63
2023/10/02 05:10:37;;;;;;;3.30;2.50;;;23.70;60.90;;;;;;217143;1288;26822;-64
2023/10/02 05:16:06;;;;;;;3.30;2.30;;;23.60;61.10;;;;;;217019;1291;22674;-63
2023/10/02 05:21:04;;;;;;;8.00;4.30;;;23.60;60.90;;;;;;217010;1295;22634;-65
2023/10/02 05:26:11;;;;;;;2.10;1.90;;;23.60;61.30;;;;;;217098;1298;23309;-64
2023/10/02 05:31:15;;;;;;;6.30;2.90;;;23.60;61.30;;;;;;216662;1298;23932;-63
2023/10/02 05:36:21;;;;;;;6.20;2.20;;;23.50;61.30;;;;;;216824;1290;24221;-63
2023/10/02 05:41:38;;;;;;;2.40;1.90;;;23.50;61.40;;;;;;217036;1275;23936;-64
2023/10/02 05:46:58;;;;;;;4.20;2.20;;;23.60;61.20;;;;;;217377;1286;22677;-66
2023/10/02 05:52:02;;;;;;;3.20;2.40;;;23.60;61.60;;;;;;217290;1294;25453;-64
2023/10/02 05:57:14;;;;;;;3.10;2.30;;;23.60;61.50;;;;;;217577;1292;24334;-65
2023/10/02 06:02:19;;;;;;;6.80;3.20;;;23.50;61.90;;;;;;217336;1298;24335;-63
2023/10/02 06:12:46;;;;;;;6.50;1.90;;;23.70;61.60;;;;;;217695;1286;26764;-64
2023/10/02 06:17:49;;;;;;;14.40;2.90;;;23.70;61.70;;;;;;217382;1294;22632;-64
2023/10/02 06:23:05;;;;;;;7.60;2.00;;;23.60;62.20;;;;;;217384;1295;22564;-64
2023/10/02 06:28:25;;;;;;;7.30;2.20;;;23.60;62.60;;;;;;217257;1294;22559;-65
2023/10/02 06:33:28;;;;;;;3.60;2.00;;;23.70;62.60;;;;;;217260;1285;24188;-63
2023/10/02 06:38:31;;;;;;;5.50;2.60;;;23.70;62.60;;;;;;217577;1292;22608;-62
2023/10/02 06:43:35;;;;;;;4.00;1.90;;;23.70;62.80;;;;;;217608;1298;24279;-64
2023/10/02 06:48:43;;;;;;;6.40;2.30;;;23.60;63.40;;;;;;217374;1295;22565;-64
2023/10/02 06:53:47;;;;;;;3.30;2.10;;;23.70;63.30;;;;;;217324;1295;23645;-64
2023/10/02 06:58:52;;;;;;;3.90;2.20;;;23.70;63.00;;;;;;217059;1292;24264;-65
2023/10/02 07:03:56;;;;;;;5.40;2.00;;;23.70;63.30;;;;;;217200;1281;25380;-64
2023/10/02 07:09:13;;;;;;;6.90;2.30;;;23.90;63.20;;;;;;217488;1289;23773;-66
2023/10/02 07:14:16;;;;;;;5.50;2.80;;;23.80;63.10;;;;;;217480;1291;22558;-66
2023/10/02 07:19:38;;;;;;;6.10;2.20;;;23.80;63.10;;;;;;217041;1292;22551;-69
2023/10/02 07:24:47;;;;;;;9.50;2.90;;;23.70;63.60;;;;;;218079;1297;23918;-67
2023/10/02 07:29:53;;;;;;;2.80;2.00;;;23.80;62.50;;;;;;218666;1293;22643;-66
2023/10/02 07:35:09;;;;;;;4.50;2.30;;;23.80;62.30;;;;;;217406;1285;22693;-68
2023/10/02 07:40:13;;;;;;;5.20;2.20;;;23.70;62.70;;;;;;217446;1298;22568;-66
2023/10/02 07:45:26;;;;;;;2.90;2.40;;;23.70;62.90;;;;;;217163;1291;23945;-67
2023/10/02 07:50:35;;;;;;;3.10;2.00;;;23.70;62.70;;;;;;217143;1288;23979;-67
2023/10/02 07:55:46;;;;;;;4.60;2.20;;;23.80;62.40;;;;;;217024;1281;22572;-66
2023/10/02 08:00:49;;;;;;;;;;;23.70;62.30;;;;;;217246;1290;22530;-68
2023/10/02 08:05:56;;;;;;;3.00;2.20;;;23.70;62.90;;;;;;217335;1292;25431;-67
2023/10/02 08:11:02;;;;;;;2.00;1.80;;;23.80;62.30;;;;;;217589;1292;25362;-67
2023/10/02 08:16:20;;;;;;;4.10;2.10;;;23.70;62.20;;;;;;217107;1298;23020;-65
2023/10/02 08:21:35;;;;;;;2.50;1.90;;;23.70;62.40;;;;;;217210;1294;24262;-67
2023/10/02 08:26:40;;;;;;;5.50;1.80;;;23.70;62.10;;;;;;217449;1294;22694;-67
2023/10/02 08:31:48;;;;;;;4.30;2.30;;;23.90;61.60;;;;;;217049;1291;24287;-68
2023/10/02 08:37:15;;;;;;;2.20;1.80;;;23.90;61.30;;;;;;217505;1295;22616;-68
2023/10/02 08:42:24;;;;;;;4.40;2.50;;;23.90;62.00;;;;;;217112;1292;24233;-67
2023/10/02 08:47:27;;;;;;;3.40;2.50;;;23.90;61.30;;;;;;217486;1298;22571;-67
2023/10/02 08:52:49;;;;;;;2.10;1.90;;;23.90;61.30;;;;;;217382;1292;25335;-67
2023/10/02 08:57:52;;;;;;;5.10;2.90;;;23.90;61.30;;;;;;217495;1294;24420;-67
2023/10/02 09:03:15;;;;;;;;;;;23.90;61.30;;;;;;217484;1291;22545;-68
2023/10/02 09:08:21;;;;;;;4.70;2.40;;;23.90;61.10;;;;;;217209;1287;24427;-66
2023/10/02 09:13:24;;;;;;;2.10;1.70;;;23.90;61.10;;;;;;217330;1292;24251;-65
2023/10/02 09:18:58;;;;;;;6.40;2.90;;;23.90;61.10;;;;;;217164;1295;22565;-67
2023/10/02 09:24:00;;;;;;;5.10;2.00;;;23.80;61.40;;;;;;217391;1295;22674;-67
2023/10/02 09:29:06;;;;;;;2.60;2.20;;;23.70;61.50;;;;;;217053;1285;22579;-68
2023/10/02 09:34:16;;;;;;;3.10;2.00;;;23.70;61.60;;;;;;217289;1297;24259;-67
2023/10/02 09:39:40;;;;;;;3.00;2.10;;;23.70;61.50;;;;;;217262;1297;22570;-67
2023/10/02 09:44:46;;;;;;;4.90;2.90;;;23.70;61.50;;;;;;217549;1288;26661;-66
2023/10/02 09:50:11;;;;;;;3.20;2.10;;;23.80;61.30;;;;;;217258;1288;22582;-67
2023/10/02 09:55:46;;;;;;;2.50;2.10;;;24.00;61.50;;;;;;217369;1282;25281;-68
2023/10/02 10:01:33;;;;;;;5.90;2.10;;;24.30;60.30;;;;;;217442;1292;24315;-69
2023/10/02 10:06:49;;;;;;;8.80;3.10;;;24.40;59.80;;;;;;217247;1298;22575;-68
2023/10/02 10:17:17;;;;;;;164.00;55.80;;;24.40;59.20;;;;;;217347;1296;22649;-68
2023/10/02 10:22:40;;;;;;;209.20;75.20;;;24.60;60.80;;;;;;217335;1291;22560;-69
2023/10/02 10:27:54;;;;;;;201.60;74.40;;;24.70;58.80;;;;;;217232;1294;22565;-69
2023/10/02 10:43:44;;;;;;;95.10;38.90;;;24.90;56.50;;;;;;217249;1294;22601;-69
2023/10/02 10:48:59;;;;;;;86.00;28.30;;;25.10;55.30;;;;;;217484;1294;22956;-67
2023/10/02 10:54:12;;;;;;;72.90;29.50;;;25.10;54.90;;;;;;217175;1295;23524;-68
2023/10/02 10:59:32;;;;;;;62.10;24.70;;;25.30;54.80;;;;;;217432;1291;22545;-64
2023/10/02 11:04:39;;;;;;;54.90;20.90;;;25.40;54.80;;;;;;217148;1291;22704;-64
2023/10/02 11:09:42;;;;;;;46.50;19.60;;;25.40;54.60;;;;;;217057;1281;22598;-65
2023/10/02 11:14:45;;;;;;;30.10;14.30;;;25.30;54.70;;;;;;217065;1282;24097;-69
2023/10/02 11:19:55;;;;;;;27.70;13.50;;;25.60;53.30;;;;;;217417;1294;22485;-65
2023/10/02 11:25:00;;;;;;;22.50;10.80;;;25.70;53.10;;;;;;217098;1291;26929;-66
2023/10/02 11:30:07;;;;;;;21.80;9.80;;;25.50;53.20;;;;;;217470;1291;24387;-63
2023/10/02 11:35:09;;;;;;;21.00;8.50;;;25.60;53.70;;;;;;217377;1292;22564;-65
2023/10/02 11:40:13;;;;;;;16.70;9.00;;;25.70;53.20;;;;;;217373;1297;23825;-65
2023/10/02 11:45:17;;;;;;;13.10;7.10;;;25.90;52.70;;;;;;217267;1296;22580;-65
2023/10/02 11:50:20;;;;;;;14.70;7.50;;;26.00;52.60;;;;;;217549;1297;24280;-63
2023/10/02 11:55:24;;;;;;;16.40;7.60;;;25.90;53.20;;;;;;217627;1294;22830;-66
2023/10/02 12:00:27;;;;;;;13.90;6.70;;;25.90;53.40;;;;;;217379;1294;25327;-63
2023/10/02 12:05:36;;;;;;;12.00;6.90;;;25.80;54.00;;;;;;217416;1291;22680;-65
2023/10/02 12:10:41;;;;;;;11.10;5.40;;;25.80;53.60;;;;;;217501;1291;25438;-65
2023/10/02 12:15:46;;;;;;;9.60;5.70;;;25.90;53.40;;;;;;217323;1293;22850;-63
2023/10/02 12:20:49;;;;;;;13.10;5.20;;;25.90;53.10;;;;;;217520;1293;22895;-62
2023/10/02 12:25:52;;;;;;;10.10;5.10;;;26.10;53.00;;;;;;217354;1292;22563;-62
2023/10/02 12:30:55;;;;;;;8.90;5.10;;;26.00;52.80;;;;;;217260;1291;22553;-63
2023/10/02 12:35:58;;;;;;;14.90;5.30;;;26.10;52.00;;;;;;217263;1285;25404;-60
2023/10/02 12:41:01;;;;;;;10.20;4.80;;;26.00;51.90;;;;;;216951;1285;24253;-63
2023/10/02 12:46:04;;;;;;;8.30;4.70;;;26.00;51.70;;;;;;217214;1291;22556;-64
2023/10/02 12:51:08;;;;;;;8.60;3.90;;;26.10;51.60;;;;;;216982;1290;22575;-64
2023/10/02 12:56:33;;;;;;;7.90;3.70;;;26.00;51.90;;;;;;217203;1294;22654;-64
2023/10/02 13:01:40;;;;;;;6.00;3.90;;;26.00;51.80;;;;;;217460;1285;24299;-66
2023/10/02 13:06:45;;;;;;;5.00;3.70;;;26.00;52.10;;;;;;216995;1285;22707;-65
2023/10/02 13:11:48;;;;;;;8.80;4.80;;;26.10;52.40;;;;;;217331;1282;24250;-66
2023/10/02 13:16:51;;;;;;;8.60;4.50;;;26.10;52.30;;;;;;217519;1291;22572;-66
2023/10/02 13:21:53;;;;;;;4.80;3.80;;;26.20;51.90;;;;;;217570;1291;22569;-66
2023/10/02 13:26:58;;;;;;;4.50;3.10;;;26.30;51.50;;;;;;217319;1297;22591;-67
2023/10/02 13:32:01;;;;;;;5.80;3.40;;;26.20;51.70;;;;;;217485;1291;22549;-65
2023/10/02 13:37:05;;;;;;;8.80;4.50;;;26.40;51.20;;;;;;216903;1285;22552;-64
2023/10/02 13:42:09;;;;;;;6.80;3.70;;;26.10;52.10;;;;;;216900;1294;22674;-62
2023/10/02 13:47:12;;;;;;;7.40;4.10;;;26.00;53.50;;;;;;217086;1288;22672;-60
2023/10/02 13:52:29;;;;;;;16.20;4.70;;;25.80;53.20;;;;;;217262;1292;22568;-66
2023/10/02 13:57:31;;;;;;;8.90;3.50;;;25.90;53.50;;;;;;217221;1285;22951;-63
2023/10/02 14:02:34;;;;;;;4.00;3.10;;;25.90;53.40;;;;;;217244;1291;22549;-60
2023/10/02 14:07:37;;;;;;;14.20;4.60;;;25.90;53.60;;;;;;216970;1291;22559;-67
2023/10/02 14:12:42;;;;;;;5.60;3.40;;;25.90;53.40;;;;;;217830;1291;26468;-64
2023/10/02 14:17:52;;;;;;;5.20;3.40;;;26.00;53.50;;;;;;217575;1293;25470;-69
2023/10/02 14:22:55;;;;;;;5.80;3.90;;;25.90;53.50;;;;;;217174;1295;22696;-67
2023/10/02 14:27:59;;;;;;;12.70;5.20;;;26.10;52.30;;;;;;217031;1288;25444;-67
2023/10/02 14:33:01;;;;;;;4.20;3.10;;;26.00;52.30;;;;;;217180;1291;24422;-62
2023/10/02 14:38:04;;;;;;;5.80;4.00;;;26.00;52.90;;;;;;216235;1297;22595;-61
2023/10/02 14:43:08;;;;;;;6.00;3.40;;;25.90;53.20;;;;;;216211;1299;23137;-65
2023/10/02 14:48:19;;;;;;;11.70;4.30;;;25.70;53.60;;;;;;215945;1303;24238;-63
2023/10/02 14:53:55;;;;;;;4.20;2.90;;;25.70;54.80;;;;;;216160;1291;24246;-70
2023/10/02 14:59:07;;;;;;;7.00;4.00;;;25.80;55.70;;;;;;214994;1287;23975;-65
2023/10/02 15:04:11;;;;;;;7.60;3.80;;;25.80;55.90;;;;;;215965;1298;24254;-66
2023/10/02 15:09:22;;;;;;;12.00;4.10;;;25.90;56.20;;;;;;215976;1293;212542;-65
2023/10/02 15:14:28;;;;;;;7.20;3.60;;;25.80;56.30;;;;;;216027;1301;22580;-68
2023/10/02 15:19:33;;;;;;;8.10;4.00;;;25.70;56.60;;;;;;215753;1300;24270;-67
2023/10/02 15:24:37;;;;;;;16.70;4.90;;;25.70;56.60;;;;;;215920;1300;25474;-66
2023/10/02 15:29:40;;;;;;;9.90;4.50;;;25.70;57.30;;;;;;215842;1298;25368;-67
2023/10/02 15:34:48;;;;;;;7.90;4.00;;;25.70;57.40;;;;;;215838;1300;22702;-67
2023/10/02 15:39:51;;;;;;;11.10;5.00;;;25.70;57.90;;;;;;216014;1297;22562;-65
2023/10/02 15:44:54;;;;;;;108.00;39.30;;;25.70;58.10;;;;;;215815;1290;22572;-65
2023/10/02 15:49:59;;;;;;;248.20;89.30;;;25.70;59.30;;;;;;215762;1297;22555;-64
2023/10/02 15:55:03;;;;;;;358.00;132.80;;;25.70;60.40;;;;;;216548;1291;22546;-67
2023/10/02 16:00:15;;;;;;;313.80;108.70;;;25.60;59.90;;;;;;217460;1285;22565;-64
2023/10/02 16:05:18;;;;;;;270.80;94.60;;;25.70;60.30;;;;;;217334;1298;22569;-61
2023/10/02 16:10:23;;;;;;;236.90;87.80;;;25.70;61.30;;;;;;217267;1297;22671;-61
2023/10/02 16:15:28;;;;;;;214.90;79.80;;;25.70;61.30;;;;;;220449;1291;22600;-66
2023/10/02 16:20:32;;;;;;;197.50;76.60;;;25.80;61.00;;;;;;217839;1285;25386;-63
2023/10/02 16:25:35;;;;;;;176.40;70.00;;;25.80;59.70;;;;;;217281;1292;22548;-71
2023/10/02 16:30:38;;;;;;;112.90;42.80;;;25.70;60.20;;;;;;217649;1292;24331;-60
2023/10/02 16:35:41;;;;;;;72.60;28.70;;;25.40;59.30;;;;;;216896;1288;26273;-62
2023/10/02 16:40:44;;;;;;;45.40;18.60;;;25.10;59.80;;;;;;217139;1299;22621;-62
2023/10/02 16:45:47;;;;;;;30.20;13.00;;;24.90;60.10;;;;;;217325;1279;26082;-65
2023/10/02 16:50:50;;;;;;;22.90;10.90;;;24.70;60.60;;;;;;217318;1292;23203;-66
2023/10/02 16:55:54;;;;;;;20.70;9.90;;;24.70;60.30;;;;;;217173;1297;23941;-64
2023/10/02 17:00:59;;;;;;;18.30;8.30;;;24.70;60.10;;;;;;217327;1294;22619;-65
2023/10/02 17:06:13;;;;;;;18.10;6.90;;;24.70;60.00;;;;;;217273;1285;22587;-66
2023/10/02 17:11:20;;;;;;;14.60;9.00;;;24.50;60.30;;;;;;217185;1291;25285;-67
2023/10/02 17:16:23;;;;;;;18.60;8.60;;;24.40;61.30;;;;;;217210;1298;22562;-63
2023/10/02 17:21:31;;;;;;;10.00;6.90;;;24.40;60.20;;;;;;217247;1292;27819;-65
2023/10/02 17:26:36;;;;;;;16.50;8.20;;;24.50;60.20;;;;;;217231;1291;23021;-63
2023/10/02 17:31:39;;;;;;;14.90;7.70;;;24.70;60.10;;;;;;217024;1291;22560;-64
2023/10/02 17:36:43;;;;;;;14.60;7.00;;;24.60;60.00;;;;;;217197;1292;23008;-64
2023/10/02 17:41:50;;;;;;;11.90;8.10;;;24.30;60.20;;;;;;217302;1295;22555;-69
2023/10/02 17:46:56;;;;;;;11.30;6.70;;;24.20;60.90;;;;;;217233;1294;24271;-67
2023/10/02 17:52:01;;;;;;;19.40;6.70;;;24.10;60.70;;;;;;217250;1294;22549;-67
2023/10/02 17:57:06;;;;;;;12.20;6.30;;;23.90;61.10;;;;;;217017;1297;22612;-69
2023/10/02 18:02:10;;;;;;;14.20;6.50;;;24.00;61.50;;;;;;217054;1292;26692;-69
2023/10/02 18:07:16;;;;;;;13.10;7.10;;;24.20;62.70;;;;;;217155;1295;24251;-67
2023/10/02 18:12:22;;;;;;;19.90;7.50;;;24.40;61.70;;;;;;217373;1288;22552;-71
2023/10/02 18:17:29;;;;;;;13.50;9.10;;;24.30;61.60;;;;;;217126;1297;22566;-71
2023/10/02 18:22:34;;;;;;;23.00;9.70;;;24.30;61.60;;;;;;217287;1291;24277;-69
2023/10/02 18:27:40;;;;;;;17.90;7.90;;;24.30;62.90;;;;;;216192;1297;25747;-72
2023/10/02 18:32:48;;;;;;;25.10;10.30;;;24.40;62.40;;;;;;216312;1297;24310;-68
2023/10/02 18:37:53;;;;;;;16.10;8.60;;;24.50;61.70;;;;;;215857;1303;25408;-71
2023/10/02 18:42:58;;;;;;;20.40;10.00;;;24.40;61.10;;;;;;216044;1287;22558;-67
2023/10/02 18:48:03;;;;;;;13.00;8.70;;;24.30;61.00;;;;;;216162;1288;24449;-69
2023/10/02 18:53:09;;;;;;;23.80;10.50;;;24.30;61.00;;;;;;215968;1297;22621;-75
2023/10/02 18:58:18;;;;;;;19.90;11.00;;;24.40;60.60;;;;;;216843;1292;24452;-72
2023/10/02 19:03:24;;;;;;;25.80;11.10;;;24.50;61.80;;;;;;217337;1285;23022;-70
2023/10/02 19:08:31;;;;;;;25.20;11.40;;;24.40;60.80;;;;;;217440;1289;23193;-74
2023/10/02 19:13:41;;;;;;;243.80;82.90;;;24.10;61.20;;;;;;217221;1298;24283;-68
2023/10/02 19:18:50;;;;;;;372.70;128.40;;;24.20;60.70;;;;;;217519;1294;24279;-68
2023/10/02 19:23:56;;;;;;;410.80;150.60;;;24.30;60.40;;;;;;217100;1292;22682;-66
2023/10/02 19:29:04;;;;;;;341.40;113.20;;;24.20;60.40;;;;;;217213;1298;22819;-67
2023/10/02 19:34:09;;;;;;;204.60;70.10;;;24.10;60.10;;;;;;217008;1294;22579;-68
2023/10/02 19:39:13;;;;;;;157.40;52.40;;;24.10;59.90;;;;;;217258;1292;24250;-64
2023/10/02 19:44:19;;;;;;;117.60;38.80;;;24.10;60.00;;;;;;217321;1292;26217;-68
2023/10/02 19:49:28;;;;;;;114.00;37.10;;;24.00;59.80;;;;;;217057;1295;22716;-67
2023/10/02 19:54:32;;;;;;;114.40;38.90;;;24.10;60.10;;;;;;219807;1298;22738;-68
2023/10/02 19:59:36;;;;;;;97.20;34.70;;;24.40;60.10;;;;;;219159;1298;24288;-58
2023/10/02 20:04:49;;;;;;;89.60;33.30;;;24.50;59.70;;;;;;217045;1298;22556;-57
2023/10/02 20:09:53;;;;;;;72.20;30.30;;;24.40;59.80;;;;;;217293;1294;24029;-57
2023/10/02 20:14:58;;;;;;;75.20;29.10;;;24.40;60.50;;;;;;217223;1298;24334;-58
2023/10/02 20:20:08;;;;;;;72.90;28.40;;;24.50;60.60;;;;;;217220;1298;24223;-56
2023/10/02 20:25:12;;;;;;;64.90;27.10;;;24.40;60.40;;;;;;216938;1298;22569;-59
2023/10/02 20:30:16;;;;;;;63.20;26.20;;;24.40;60.30;;;;;;217246;1288;22830;-58
2023/10/02 20:35:19;;;;;;;58.10;24.00;;;24.40;60.70;;;;;;217409;1296;22559;-59
2023/10/02 20:40:22;;;;;;;63.00;24.70;;;24.30;61.20;;;;;;216750;1298;22588;-57
2023/10/02 20:45:25;;;;;;;55.50;21.10;;;24.20;61.10;;;;;;217237;1298;22566;-57
2023/10/02 20:50:27;;;;;;;48.40;22.00;;;24.20;61.00;;;;;;218541;1298;22582;-59
2023/10/02 20:55:30;;;;;;;44.70;19.90;;;24.30;60.80;;;;;;222296;1292;25673;-58
2023/10/02 21:00:35;;;;;;;44.50;21.40;;;24.30;60.70;;;;;;217320;1297;22579;-58
2023/10/02 21:05:37;;;;;;;31.70;16.40;;;24.30;60.50;;;;;;217479;1298;22555;-57
2023/10/02 21:10:40;;;;;;;38.30;18.60;;;24.30;60.80;;;;;;217564;1298;22611;-60
2023/10/02 21:15:46;;;;;;;38.80;18.70;;;24.20;60.70;;;;;;217500;1298;22548;-59
2023/10/02 21:20:51;;;;;;;33.60;16.50;;;24.20;61.00;;;;;;217073;1295;22576;-67
2023/10/02 21:25:54;;;;;;;34.70;17.00;;;24.10;61.10;;;;;;217372;1295;24400;-64
2023/10/02 21:30:57;;;;;;;36.50;16.40;;;24.20;60.80;;;;;;217096;1298;22566;-64
2023/10/02 21:36:05;;;;;;;35.50;14.60;;;24.10;61.80;;;;;;217146;1298;22567;-64
2023/10/02 21:41:17;;;;;;;33.60;15.70;;;24.20;61.90;;;;;;217307;1292;24118;-64
2023/10/02 21:46:20;;;;;;;33.50;13.60;;;24.30;62.00;;;;;;217133;1298;25563;-65
2023/10/02 21:51:23;;;;;;;32.80;14.10;;;24.30;62.50;;;;;;217308;1298;22680;-64
2023/10/02 21:56:27;;;;;;;27.60;13.50;;;24.30;62.50;;;;;;217398;1298;22564;-64
2023/10/02 22:01:30;;;;;;;27.50;13.60;;;24.20;62.50;;;;;;217126;1291;22670;-65
2023/10/02 22:06:35;;;;;;;37.40;13.10;;;24.20;62.50;;;;;;217247;1296;22674;-65
2023/10/02 22:11:38;;;;;;;24.30;13.20;;;24.10;62.30;;;;;;217198;1297;23103;-65
2023/10/02 22:16:41;;;;;;;30.00;13.40;;;24.10;62.10;;;;;;217217;1298;22814;-68
2023/10/02 22:21:44;;;;;;;19.80;12.10;;;24.10;62.10;;;;;;217446;1298;22572;-63
2023/10/02 22:26:47;;;;;;;26.70;12.20;;;24.10;62.10;;;;;;217267;1297;22642;-64
2023/10/02 22:31:51;;;;;;;29.20;12.00;;;24.10;61.80;;;;;;217568;1295;22549;-65
2023/10/02 22:36:55;;;;;;;21.00;11.90;;;24.10;62.10;;;;;;217360;1295;22616;-64
2023/10/02 22:41:58;;;;;;;23.20;12.00;;;24.10;62.40;;;;;;217308;1292;22670;-66
2023/10/02 22:47:02;;;;;;;20.10;11.50;;;24.10;62.00;;;;;;217563;1298;24120;-64
2023/10/02 22:52:06;;;;;;;25.00;11.40;;;24.10;61.80;;;;;;217193;1298;22567;-64
2023/10/02 22:57:09;;;;;;;19.10;11.90;;;24.00;61.60;;;;;;217305;1298;24252;-64
2023/10/02 23:02:14;;;;;;;20.90;11.40;;;24.10;61.90;;;;;;217366;1295;22710;-64
2023/10/02 23:07:16;;;;;;;19.00;9.50;;;24.10;61.70;;;;;;217358;1298;22578;-64
2023/10/02 23:12:19;;;;;;;18.30;10.60;;;24.00;61.90;;;;;;217179;1298;23382;-63
2023/10/02 23:17:22;;;;;;;18.50;10.50;;;24.00;61.90;;;;;;217471;1298;22549;-64
2023/10/02 23:22:26;;;;;;;18.30;10.00;;;24.00;61.80;;;;;;217373;1298;22707;-64
2023/10/02 23:27:29;;;;;;;16.70;11.20;;;24.00;61.80;;;;;;217382;1298;22547;-63
2023/10/02 23:32:34;;;;;;;21.70;11.50;;;24.00;61.70;;;;;;217374;1298;22663;-64
2023/10/02 23:37:39;;;;;;;21.10;10.60;;;24.00;61.70;;;;;;217341;1298;22566;-64
2023/10/02 23:42:41;;;;;;;16.20;10.30;;;24.00;61.60;;;;;;217287;1298;25284;-65
2023/10/02 23:47:46;;;;;;;17.50;10.40;;;24.00;61.50;;;;;;217320;1298;22795;-65
2023/10/02 23:52:53;;;;;;;16.50;9.80;;;24.00;61.50;;;;;;217419;1298;22560;-66
2023/10/02 23:57:57;;;;;;;15.60;10.30;;;23.90;61.70;;;;;;217570;1298;22757;-63
